Terminal Aerodrome Forecast
Issued by NWS Caribou, ME

Home | Current Version | Previous Version | Text Only | Print | Product List | Glossary On
Versions: 1 2 3 4 5 6 7 8 9 10 11 12 13 14 15 16 17 18 19 20 21 22 23 24 25 26 27 28 29 30 31 32 33 34 35
000
FTUS41 KCAR 030700 AAA
TAFCAR
TAF AMD
KCAR 030704Z 0307/0406 20010KT 1SM TSRA BR OVC004CB
     FM030800 27004KT P6SM OVC008
     FM031300 29005KT P6SM SCT008
     FM031700 31009KT P6SM FEW090
     FM040000 29005KT P6SM FEW250=

USA.gov is the U.S. government's official web portal to all federal, state and local government web resources and services.